sensor_id;sensor_type;location;lat;lon;timestamp;P1;durP1;ratioP1;P2;durP2;ratioP2
67456;SDS011;54319;52.038;4.640;2023-03-14T00:00:48;12.35;;;2.17;;
67456;SDS011;54319;52.038;4.640;2023-03-14T00:03:15;12.93;;;2.00;;
67456;SDS011;54319;52.038;4.640;2023-03-14T00:05:42;14.45;;;2.45;;
67456;SDS011;54319;52.038;4.640;2023-03-14T00:08:08;12.57;;;2.63;;
67456;SDS011;54319;52.038;4.640;2023-03-14T00:10:37;7.43;;;2.15;;
67456;SDS011;54319;52.038;4.640;2023-03-14T00:13:04;12.45;;;2.20;;
67456;SDS011;54319;52.038;4.640;2023-03-14T00:15:31;12.05;;;2.17;;
67456;SDS011;54319;52.038;4.640;2023-03-14T00:17:58;16.08;;;2.38;;
67456;SDS011;54319;52.038;4.640;2023-03-14T00:20:25;10.88;;;2.20;;
67456;SDS011;54319;52.038;4.640;2023-03-14T00:22:51;3.75;;;1.65;;
67456;SDS011;54319;52.038;4.640;2023-03-14T00:25:19;4.53;;;1.35;;
67456;SDS011;54319;52.038;4.640;2023-03-14T00:27:47;6.57;;;1.80;;
67456;SDS011;54319;52.038;4.640;2023-03-14T00:30:17;6.05;;;1.55;;
67456;SDS011;54319;52.038;4.640;2023-03-14T00:32:44;14.50;;;2.22;;
67456;SDS011;54319;52.038;4.640;2023-03-14T00:35:10;6.57;;;2.03;;
67456;SDS011;54319;52.038;4.640;2023-03-14T00:37:37;10.83;;;2.77;;
67456;SDS011;54319;52.038;4.640;2023-03-14T00:40:04;9.35;;;2.25;;
67456;SDS011;54319;52.038;4.640;2023-03-14T00:42:32;8.90;;;2.35;;
67456;SDS011;54319;52.038;4.640;2023-03-14T00:45:01;10.90;;;2.30;;
67456;SDS011;54319;52.038;4.640;2023-03-14T00:47:29;7.80;;;2.78;;
67456;SDS011;54319;52.038;4.640;2023-03-14T00:49:55;7.43;;;2.27;;
67456;SDS011;54319;52.038;4.640;2023-03-14T00:52:22;17.77;;;2.50;;
67456;SDS011;54319;52.038;4.640;2023-03-14T00:54:48;12.60;;;2.72;;
67456;SDS011;54319;52.038;4.640;2023-03-14T00:57:15;11.07;;;2.60;;
67456;SDS011;54319;52.038;4.640;2023-03-14T00:59:41;15.38;;;2.33;;
67456;SDS011;54319;52.038;4.640;2023-03-14T01:02:09;9.07;;;2.15;;
67456;SDS011;54319;52.038;4.640;2023-03-14T01:04:36;8.20;;;2.55;;
67456;SDS011;54319;52.038;4.640;2023-03-14T01:07:04;11.25;;;2.83;;
67456;SDS011;54319;52.038;4.640;2023-03-14T01:09:32;8.17;;;3.40;;
67456;SDS011;54319;52.038;4.640;2023-03-14T01:11:58;13.05;;;2.35;;
67456;SDS011;54319;52.038;4.640;2023-03-14T01:14:26;9.20;;;2.22;;
67456;SDS011;54319;52.038;4.640;2023-03-14T01:16:53;5.65;;;1.80;;
67456;SDS011;54319;52.038;4.640;2023-03-14T01:19:27;10.40;;;2.25;;
67456;SDS011;54319;52.038;4.640;2023-03-14T01:21:53;10.77;;;2.53;;
67456;SDS011;54319;52.038;4.640;2023-03-14T01:24:20;11.93;;;2.58;;
67456;SDS011;54319;52.038;4.640;2023-03-14T01:26:47;7.63;;;2.17;;
67456;SDS011;54319;52.038;4.640;2023-03-14T01:29:13;6.77;;;1.93;;
67456;SDS011;54319;52.038;4.640;2023-03-14T01:31:40;9.95;;;2.40;;
67456;SDS011;54319;52.038;4.640;2023-03-14T01:34:07;8.93;;;1.90;;
67456;SDS011;54319;52.038;4.640;2023-03-14T01:36:34;13.93;;;2.70;;
67456;SDS011;54319;52.038;4.640;2023-03-14T01:39:01;13.60;;;2.10;;
67456;SDS011;54319;52.038;4.640;2023-03-14T01:41:28;9.27;;;2.33;;
67456;SDS011;54319;52.038;4.640;2023-03-14T01:43:55;10.50;;;2.30;;
67456;SDS011;54319;52.038;4.640;2023-03-14T01:46:26;8.88;;;1.73;;
67456;SDS011;54319;52.038;4.640;2023-03-14T01:51:48;8.55;;;1.70;;
67456;SDS011;54319;52.038;4.640;2023-03-14T01:54:21;10.05;;;1.50;;
67456;SDS011;54319;52.038;4.640;2023-03-14T01:56:52;3.80;;;1.63;;
67456;SDS011;54319;52.038;4.640;2023-03-14T01:59:22;8.35;;;2.10;;
67456;SDS011;54319;52.038;4.640;2023-03-14T02:04:17;7.45;;;1.90;;
67456;SDS011;54319;52.038;4.640;2023-03-14T02:06:51;7.43;;;2.05;;
67456;SDS011;54319;52.038;4.640;2023-03-14T02:09:22;9.00;;;1.60;;
67456;SDS011;54319;52.038;4.640;2023-03-14T02:11:49;9.38;;;2.20;;
67456;SDS011;54319;52.038;4.640;2023-03-14T02:14:20;8.15;;;1.70;;
67456;SDS011;54319;52.038;4.640;2023-03-14T02:16:51;9.75;;;1.40;;
67456;SDS011;54319;52.038;4.640;2023-03-14T02:19:19;12.35;;;1.73;;
67456;SDS011;54319;52.038;4.640;2023-03-14T02:21:56;14.82;;;2.45;;
67456;SDS011;54319;52.038;4.640;2023-03-14T02:24:30;8.77;;;1.90;;
67456;SDS011;54319;52.038;4.640;2023-03-14T02:27:07;8.10;;;1.60;;
67456;SDS011;54319;52.038;4.640;2023-03-14T02:29:36;7.72;;;1.50;;
67456;SDS011;54319;52.038;4.640;2023-03-14T02:32:07;8.63;;;1.98;;
67456;SDS011;54319;52.038;4.640;2023-03-14T02:34:34;5.65;;;1.30;;
67456;SDS011;54319;52.038;4.640;2023-03-14T02:37:02;9.65;;;1.83;;
67456;SDS011;54319;52.038;4.640;2023-03-14T02:39:31;13.32;;;1.70;;
67456;SDS011;54319;52.038;4.640;2023-03-14T02:42:03;8.45;;;1.60;;
67456;SDS011;54319;52.038;4.640;2023-03-14T02:44:31;7.28;;;1.70;;
67456;SDS011;54319;52.038;4.640;2023-03-14T02:46:59;8.15;;;1.80;;
67456;SDS011;54319;52.038;4.640;2023-03-14T02:49:25;4.85;;;1.33;;
67456;SDS011;54319;52.038;4.640;2023-03-14T02:51:55;5.95;;;1.73;;
67456;SDS011;54319;52.038;4.640;2023-03-14T02:54:22;9.32;;;2.17;;
67456;SDS011;54319;52.038;4.640;2023-03-14T02:56:48;4.32;;;1.67;;
67456;SDS011;54319;52.038;4.640;2023-03-14T02:59:15;10.10;;;2.03;;
67456;SDS011;54319;52.038;4.640;2023-03-14T03:01:43;5.40;;;1.92;;
67456;SDS011;54319;52.038;4.640;2023-03-14T03:04:09;8.10;;;1.67;;
67456;SDS011;54319;52.038;4.640;2023-03-14T03:06:36;8.18;;;1.77;;
67456;SDS011;54319;52.038;4.640;2023-03-14T03:09:03;6.50;;;1.77;;
67456;SDS011;54319;52.038;4.640;2023-03-14T03:11:29;5.33;;;1.90;;
67456;SDS011;54319;52.038;4.640;2023-03-14T03:13:56;11.07;;;2.28;;
67456;SDS011;54319;52.038;4.640;2023-03-14T03:16:23;9.50;;;1.88;;
67456;SDS011;54319;52.038;4.640;2023-03-14T03:18:51;10.25;;;1.80;;
67456;SDS011;54319;52.038;4.640;2023-03-14T03:21:17;8.02;;;1.98;;
67456;SDS011;54319;52.038;4.640;2023-03-14T03:23:48;6.78;;;1.80;;
67456;SDS011;54319;52.038;4.640;2023-03-14T03:26:15;12.23;;;1.87;;
67456;SDS011;54319;52.038;4.640;2023-03-14T03:28:41;6.10;;;2.00;;
67456;SDS011;54319;52.038;4.640;2023-03-14T03:31:08;5.90;;;1.83;;
67456;SDS011;54319;52.038;4.640;2023-03-14T03:36:04;5.13;;;1.33;;
67456;SDS011;54319;52.038;4.640;2023-03-14T03:38:31;9.32;;;2.00;;
67456;SDS011;54319;52.038;4.640;2023-03-14T03:43:28;6.90;;;1.92;;
67456;SDS011;54319;52.038;4.640;2023-03-14T03:45:55;6.22;;;1.73;;
67456;SDS011;54319;52.038;4.640;2023-03-14T03:48:22;7.17;;;2.00;;
67456;SDS011;54319;52.038;4.640;2023-03-14T03:50:48;11.85;;;2.25;;
67456;SDS011;54319;52.038;4.640;2023-03-14T03:53:16;7.78;;;2.00;;
67456;SDS011;54319;52.038;4.640;2023-03-14T03:55:43;7.00;;;2.05;;
67456;SDS011;54319;52.038;4.640;2023-03-14T03:58:09;7.77;;;1.90;;
67456;SDS011;54319;52.038;4.640;2023-03-14T04:00:36;5.68;;;1.65;;
67456;SDS011;54319;52.038;4.640;2023-03-14T04:03:04;8.35;;;2.25;;
67456;SDS011;54319;52.038;4.640;2023-03-14T04:05:30;9.98;;;1.92;;
67456;SDS011;54319;52.038;4.640;2023-03-14T04:07:57;7.05;;;1.95;;
67456;SDS011;54319;52.038;4.640;2023-03-14T04:10:25;8.73;;;1.95;;
67456;SDS011;54319;52.038;4.640;2023-03-14T04:12:52;6.45;;;1.92;;
67456;SDS011;54319;52.038;4.640;2023-03-14T04:15:18;11.50;;;1.65;;
67456;SDS011;54319;52.038;4.640;2023-03-14T04:17:45;10.00;;;1.92;;
67456;SDS011;54319;52.038;4.640;2023-03-14T04:20:12;7.73;;;2.00;;
67456;SDS011;54319;52.038;4.640;2023-03-14T04:22:39;8.13;;;1.83;;
67456;SDS011;54319;52.038;4.640;2023-03-14T04:25:06;6.82;;;1.65;;
67456;SDS011;54319;52.038;4.640;2023-03-14T04:27:35;7.05;;;2.10;;
67456;SDS011;54319;52.038;4.640;2023-03-14T04:30:01;5.43;;;1.67;;
67456;SDS011;54319;52.038;4.640;2023-03-14T04:32:28;13.40;;;2.35;;
67456;SDS011;54319;52.038;4.640;2023-03-14T04:34:55;7.82;;;1.75;;
67456;SDS011;54319;52.038;4.640;2023-03-14T04:37:21;6.53;;;2.35;;
67456;SDS011;54319;52.038;4.640;2023-03-14T04:39:49;7.00;;;1.90;;
67456;SDS011;54319;52.038;4.640;2023-03-14T04:42:16;8.10;;;1.80;;
67456;SDS011;54319;52.038;4.640;2023-03-14T04:44:44;13.10;;;2.25;;
67456;SDS011;54319;52.038;4.640;2023-03-14T04:47:11;10.43;;;2.22;;
67456;SDS011;54319;52.038;4.640;2023-03-14T04:49:38;9.20;;;2.13;;
67456;SDS011;54319;52.038;4.640;2023-03-14T04:52:05;8.85;;;1.88;;
67456;SDS011;54319;52.038;4.640;2023-03-14T04:54:31;9.87;;;2.10;;
67456;SDS011;54319;52.038;4.640;2023-03-14T04:56:58;3.43;;;1.40;;
67456;SDS011;54319;52.038;4.640;2023-03-14T04:59:25;7.37;;;1.97;;
67456;SDS011;54319;52.038;4.640;2023-03-14T05:01:53;9.30;;;1.90;;
67456;SDS011;54319;52.038;4.640;2023-03-14T05:04:19;8.10;;;2.15;;
67456;SDS011;54319;52.038;4.640;2023-03-14T05:06:46;6.10;;;2.00;;
67456;SDS011;54319;52.038;4.640;2023-03-14T05:09:12;6.95;;;2.13;;
67456;SDS011;54319;52.038;4.640;2023-03-14T05:11:40;4.85;;;1.92;;
67456;SDS011;54319;52.038;4.640;2023-03-14T05:14:07;7.32;;;2.15;;
67456;SDS011;54319;52.038;4.640;2023-03-14T05:16:33;7.80;;;1.92;;
67456;SDS011;54319;52.038;4.640;2023-03-14T05:19:01;6.60;;;2.08;;
67456;SDS011;54319;52.038;4.640;2023-03-14T05:21:28;5.70;;;2.17;;
67456;SDS011;54319;52.038;4.640;2023-03-14T05:23:56;6.00;;;2.33;;
67456;SDS011;54319;52.038;4.640;2023-03-14T05:26:22;4.53;;;2.20;;
67456;SDS011;54319;52.038;4.640;2023-03-14T05:28:49;9.85;;;2.97;;
67456;SDS011;54319;52.038;4.640;2023-03-14T05:31:16;7.47;;;3.10;;
67456;SDS011;54319;52.038;4.640;2023-03-14T05:33:42;8.48;;;3.25;;
67456;SDS011;54319;52.038;4.640;2023-03-14T05:36:10;6.07;;;2.90;;
67456;SDS011;54319;52.038;4.640;2023-03-14T05:38:37;10.38;;;3.17;;
67456;SDS011;54319;52.038;4.640;2023-03-14T05:41:04;8.52;;;3.45;;
67456;SDS011;54319;52.038;4.640;2023-03-14T05:43:31;6.07;;;2.58;;
67456;SDS011;54319;52.038;4.640;2023-03-14T05:45:57;2.53;;;1.23;;
67456;SDS011;54319;52.038;4.640;2023-03-14T05:48:24;3.58;;;1.75;;
67456;SDS011;54319;52.038;4.640;2023-03-14T05:50:54;7.20;;;1.50;;
67456;SDS011;54319;52.038;4.640;2023-03-14T05:53:22;5.35;;;1.10;;
67456;SDS011;54319;52.038;4.640;2023-03-14T05:55:50;6.85;;;1.40;;
67456;SDS011;54319;52.038;4.640;2023-03-14T05:58:17;4.07;;;1.00;;
67456;SDS011;54319;52.038;4.640;2023-03-14T06:00:44;2.83;;;0.98;;
67456;SDS011;54319;52.038;4.640;2023-03-14T06:03:10;1.27;;;0.80;;
67456;SDS011;54319;52.038;4.640;2023-03-14T06:05:37;3.95;;;0.80;;
67456;SDS011;54319;52.038;4.640;2023-03-14T06:08:04;4.93;;;0.90;;
67456;SDS011;54319;52.038;4.640;2023-03-14T06:10:32;4.77;;;1.50;;
67456;SDS011;54319;52.038;4.640;2023-03-14T06:13:00;4.20;;;1.00;;
67456;SDS011;54319;52.038;4.640;2023-03-14T06:15:27;5.05;;;0.90;;
67456;SDS011;54319;52.038;4.640;2023-03-14T06:17:56;6.32;;;1.17;;
67456;SDS011;54319;52.038;4.640;2023-03-14T06:20:23;7.43;;;1.17;;
67456;SDS011;54319;52.038;4.640;2023-03-14T06:22:49;3.13;;;1.13;;
67456;SDS011;54319;52.038;4.640;2023-03-14T06:25:16;4.57;;;1.50;;
67456;SDS011;54319;52.038;4.640;2023-03-14T06:27:44;2.47;;;1.20;;
67456;SDS011;54319;52.038;4.640;2023-03-14T06:30:11;5.55;;;1.02;;
67456;SDS011;54319;52.038;4.640;2023-03-14T06:32:38;6.20;;;1.08;;
67456;SDS011;54319;52.038;4.640;2023-03-14T06:35:04;2.65;;;0.73;;
67456;SDS011;54319;52.038;4.640;2023-03-14T06:37:31;4.03;;;1.00;;
67456;SDS011;54319;52.038;4.640;2023-03-14T06:39:58;5.32;;;0.60;;
67456;SDS011;54319;52.038;4.640;2023-03-14T06:42:25;3.88;;;0.80;;
67456;SDS011;54319;52.038;4.640;2023-03-14T06:44:53;4.57;;;1.52;;
67456;SDS011;54319;52.038;4.640;2023-03-14T06:47:19;3.33;;;0.93;;
67456;SDS011;54319;52.038;4.640;2023-03-14T06:49:46;7.05;;;1.00;;
67456;SDS011;54319;52.038;4.640;2023-03-14T06:52:12;2.55;;;0.65;;
67456;SDS011;54319;52.038;4.640;2023-03-14T06:54:39;2.72;;;1.00;;
67456;SDS011;54319;52.038;4.640;2023-03-14T06:57:05;5.47;;;0.95;;
67456;SDS011;54319;52.038;4.640;2023-03-14T06:59:32;4.18;;;0.95;;
67456;SDS011;54319;52.038;4.640;2023-03-14T07:02:00;6.63;;;1.08;;
67456;SDS011;54319;52.038;4.640;2023-03-14T07:04:27;3.95;;;1.02;;
67456;SDS011;54319;52.038;4.640;2023-03-14T07:06:53;3.15;;;0.80;;
67456;SDS011;54319;52.038;4.640;2023-03-14T07:09:20;5.20;;;0.98;;
67456;SDS011;54319;52.038;4.640;2023-03-14T07:11:46;6.25;;;1.20;;
67456;SDS011;54319;52.038;4.640;2023-03-14T07:14:14;3.03;;;1.30;;
67456;SDS011;54319;52.038;4.640;2023-03-14T07:16:41;8.65;;;1.08;;
67456;SDS011;54319;52.038;4.640;2023-03-14T07:19:09;7.95;;;1.30;;
67456;SDS011;54319;52.038;4.640;2023-03-14T07:21:35;8.15;;;1.05;;
67456;SDS011;54319;52.038;4.640;2023-03-14T07:24:02;13.33;;;1.53;;
67456;SDS011;54319;52.038;4.640;2023-03-14T07:26:29;7.50;;;1.17;;
67456;SDS011;54319;52.038;4.640;2023-03-14T07:28:56;8.98;;;1.48;;
67456;SDS011;54319;52.038;4.640;2023-03-14T07:31:22;4.70;;;1.23;;
67456;SDS011;54319;52.038;4.640;2023-03-14T07:33:49;8.98;;;1.27;;
67456;SDS011;54319;52.038;4.640;2023-03-14T07:36:17;6.72;;;1.17;;
67456;SDS011;54319;52.038;4.640;2023-03-14T07:38:44;5.72;;;1.13;;
67456;SDS011;54319;52.038;4.640;2023-03-14T07:41:13;2.47;;;0.77;;
67456;SDS011;54319;52.038;4.640;2023-03-14T07:43:40;6.45;;;1.58;;
67456;SDS011;54319;52.038;4.640;2023-03-14T07:46:07;8.27;;;1.83;;
67456;SDS011;54319;52.038;4.640;2023-03-14T07:48:35;5.72;;;0.95;;
67456;SDS011;54319;52.038;4.640;2023-03-14T07:51:02;5.38;;;1.23;;
67456;SDS011;54319;52.038;4.640;2023-03-14T07:53:30;3.00;;;0.82;;
67456;SDS011;54319;52.038;4.640;2023-03-14T07:55:57;7.90;;;1.40;;
67456;SDS011;54319;52.038;4.640;2023-03-14T07:58:23;7.40;;;1.15;;
67456;SDS011;54319;52.038;4.640;2023-03-14T08:00:50;10.15;;;1.35;;
67456;SDS011;54319;52.038;4.640;2023-03-14T08:03:17;8.13;;;1.40;;
67456;SDS011;54319;52.038;4.640;2023-03-14T08:05:46;13.90;;;2.87;;
67456;SDS011;54319;52.038;4.640;2023-03-14T08:08:13;6.10;;;1.50;;
67456;SDS011;54319;52.038;4.640;2023-03-14T08:10:41;10.55;;;2.20;;
67456;SDS011;54319;52.038;4.640;2023-03-14T08:13:09;6.97;;;1.50;;
67456;SDS011;54319;52.038;4.640;2023-03-14T08:15:36;4.57;;;1.40;;
67456;SDS011;54319;52.038;4.640;2023-03-14T08:18:03;6.95;;;1.58;;
67456;SDS011;54319;52.038;4.640;2023-03-14T08:20:31;2.83;;;1.25;;
67456;SDS011;54319;52.038;4.640;2023-03-14T08:22:58;4.72;;;0.90;;
67456;SDS011;54319;52.038;4.640;2023-03-14T08:25:26;4.38;;;1.13;;
67456;SDS011;54319;52.038;4.640;2023-03-14T08:27:55;8.20;;;1.77;;
67456;SDS011;54319;52.038;4.640;2023-03-14T08:30:22;4.93;;;0.80;;
67456;SDS011;54319;52.038;4.640;2023-03-14T08:32:49;2.67;;;1.23;;
67456;SDS011;54319;52.038;4.640;2023-03-14T08:35:15;8.68;;;1.02;;
67456;SDS011;54319;52.038;4.640;2023-03-14T08:37:42;5.03;;;1.02;;
67456;SDS011;54319;52.038;4.640;2023-03-14T08:40:09;2.15;;;0.85;;
67456;SDS011;54319;52.038;4.640;2023-03-14T08:42:37;3.65;;;1.08;;
67456;SDS011;54319;52.038;4.640;2023-03-14T08:45:06;3.50;;;1.00;;
67456;SDS011;54319;52.038;4.640;2023-03-14T08:47:34;3.25;;;0.75;;
67456;SDS011;54319;52.038;4.640;2023-03-14T08:50:01;4.28;;;1.00;;
67456;SDS011;54319;52.038;4.640;2023-03-14T08:52:29;4.43;;;1.25;;
67456;SDS011;54319;52.038;4.640;2023-03-14T08:57:23;3.17;;;1.08;;
67456;SDS011;54319;52.038;4.640;2023-03-14T08:59:52;8.13;;;1.40;;
67456;SDS011;54319;52.038;4.640;2023-03-14T09:02:20;12.27;;;1.87;;
67456;SDS011;54319;52.038;4.640;2023-03-14T09:04:47;9.98;;;2.55;;
67456;SDS011;54319;52.038;4.640;2023-03-14T09:07:14;4.95;;;1.70;;
67456;SDS011;54319;52.038;4.640;2023-03-14T09:09:41;7.47;;;1.70;;
67456;SDS011;54319;52.038;4.640;2023-03-14T09:12:08;15.90;;;2.42;;
67456;SDS011;54319;52.038;4.640;2023-03-14T09:14:35;14.60;;;2.63;;
67456;SDS011;54319;52.038;4.640;2023-03-14T09:17:02;8.18;;;1.85;;
67456;SDS011;54319;52.038;4.640;2023-03-14T09:19:31;9.60;;;2.15;;
67456;SDS011;54319;52.038;4.640;2023-03-14T09:21:57;10.48;;;1.70;;
67456;SDS011;54319;52.038;4.640;2023-03-14T09:24:24;11.45;;;2.00;;
67456;SDS011;54319;52.038;4.640;2023-03-14T09:26:51;12.80;;;2.10;;
67456;SDS011;54319;52.038;4.640;2023-03-14T09:29:17;8.38;;;1.85;;
67456;SDS011;54319;52.038;4.640;2023-03-14T09:31:45;12.15;;;2.35;;
67456;SDS011;54319;52.038;4.640;2023-03-14T09:34:11;7.88;;;1.77;;
67456;SDS011;54319;52.038;4.640;2023-03-14T09:36:39;13.43;;;2.10;;
67456;SDS011;54319;52.038;4.640;2023-03-14T09:39:06;9.63;;;1.90;;
67456;SDS011;54319;52.038;4.640;2023-03-14T09:41:33;9.95;;;1.73;;
67456;SDS011;54319;52.038;4.640;2023-03-14T09:44:04;11.30;;;1.90;;
67456;SDS011;54319;52.038;4.640;2023-03-14T09:46:35;8.52;;;2.00;;
67456;SDS011;54319;52.038;4.640;2023-03-14T09:49:05;23.25;;;2.38;;
67456;SDS011;54319;52.038;4.640;2023-03-14T09:51:40;12.73;;;2.10;;
67456;SDS011;54319;52.038;4.640;2023-03-14T09:54:08;13.90;;;2.88;;
67456;SDS011;54319;52.038;4.640;2023-03-14T09:56:50;13.02;;;2.47;;
67456;SDS011;54319;52.038;4.640;2023-03-14T09:59:17;12.48;;;2.72;;
67456;SDS011;54319;52.038;4.640;2023-03-14T10:01:45;10.05;;;2.45;;
67456;SDS011;54319;52.038;4.640;2023-03-14T10:04:12;12.25;;;2.08;;
67456;SDS011;54319;52.038;4.640;2023-03-14T10:06:43;13.27;;;2.92;;
67456;SDS011;54319;52.038;4.640;2023-03-14T10:09:10;7.07;;;2.30;;
67456;SDS011;54319;52.038;4.640;2023-03-14T10:11:41;17.17;;;2.67;;
67456;SDS011;54319;52.038;4.640;2023-03-14T10:14:08;12.80;;;2.60;;
67456;SDS011;54319;52.038;4.640;2023-03-14T10:16:40;13.80;;;2.13;;
67456;SDS011;54319;52.038;4.640;2023-03-14T10:19:09;12.98;;;2.45;;
67456;SDS011;54319;52.038;4.640;2023-03-14T10:21:38;15.20;;;2.38;;
67456;SDS011;54319;52.038;4.640;2023-03-14T10:26:57;18.85;;;2.95;;
67456;SDS011;54319;52.038;4.640;2023-03-14T10:29:27;16.45;;;2.35;;
67456;SDS011;54319;52.038;4.640;2023-03-14T10:31:57;20.70;;;2.92;;
67456;SDS011;54319;52.038;4.640;2023-03-14T10:34:27;17.85;;;2.20;;
67456;SDS011;54319;52.038;4.640;2023-03-14T10:36:56;15.38;;;2.22;;
67456;SDS011;54319;52.038;4.640;2023-03-14T10:39:30;14.80;;;2.55;;
67456;SDS011;54319;52.038;4.640;2023-03-14T10:42:04;15.15;;;2.60;;
67456;SDS011;54319;52.038;4.640;2023-03-14T10:44:38;15.13;;;2.70;;
67456;SDS011;54319;52.038;4.640;2023-03-14T10:47:05;18.87;;;2.07;;
67456;SDS011;54319;52.038;4.640;2023-03-14T10:49:33;17.42;;;2.20;;
67456;SDS011;54319;52.038;4.640;2023-03-14T10:52:02;11.98;;;2.53;;
67456;SDS011;54319;52.038;4.640;2023-03-14T10:54:41;10.63;;;2.22;;
67456;SDS011;54319;52.038;4.640;2023-03-14T10:57:13;13.40;;;2.13;;
67456;SDS011;54319;52.038;4.640;2023-03-14T10:59:41;16.00;;;2.40;;
67456;SDS011;54319;52.038;4.640;2023-03-14T11:02:32;16.90;;;2.20;;
67456;SDS011;54319;52.038;4.640;2023-03-14T11:05:15;10.75;;;2.10;;
67456;SDS011;54319;52.038;4.640;2023-03-14T11:07:51;12.55;;;2.38;;
67456;SDS011;54319;52.038;4.640;2023-03-14T11:10:22;19.15;;;3.30;;
67456;SDS011;54319;52.038;4.640;2023-03-14T11:13:00;7.30;;;1.75;;
67456;SDS011;54319;52.038;4.640;2023-03-14T11:15:35;10.38;;;1.90;;
67456;SDS011;54319;52.038;4.640;2023-03-14T11:18:18;13.88;;;1.90;;
67456;SDS011;54319;52.038;4.640;2023-03-14T11:21:02;6.32;;;1.70;;
67456;SDS011;54319;52.038;4.640;2023-03-14T11:23:37;17.15;;;2.30;;
67456;SDS011;54319;52.038;4.640;2023-03-14T11:26:17;10.77;;;1.80;;
67456;SDS011;54319;52.038;4.640;2023-03-14T11:28:52;13.55;;;2.33;;
67456;SDS011;54319;52.038;4.640;2023-03-14T11:31:24;12.07;;;1.95;;
67456;SDS011;54319;52.038;4.640;2023-03-14T11:33:55;10.60;;;2.30;;
67456;SDS011;54319;52.038;4.640;2023-03-14T11:36:27;11.32;;;2.25;;
67456;SDS011;54319;52.038;4.640;2023-03-14T11:38:59;8.93;;;2.35;;
67456;SDS011;54319;52.038;4.640;2023-03-14T11:41:29;10.38;;;1.92;;
67456;SDS011;54319;52.038;4.640;2023-03-14T11:43:58;9.20;;;1.85;;
67456;SDS011;54319;52.038;4.640;2023-03-14T11:46:28;13.25;;;2.03;;
67456;SDS011;54319;52.038;4.640;2023-03-14T11:49:01;8.75;;;1.73;;
67456;SDS011;54319;52.038;4.640;2023-03-14T11:51:33;7.88;;;1.67;;
67456;SDS011;54319;52.038;4.640;2023-03-14T11:54:03;6.47;;;1.50;;
67456;SDS011;54319;52.038;4.640;2023-03-14T11:56:39;7.93;;;1.65;;
67456;SDS011;54319;52.038;4.640;2023-03-14T11:59:15;8.23;;;1.83;;
67456;SDS011;54319;52.038;4.640;2023-03-14T12:01:51;10.23;;;1.90;;
67456;SDS011;54319;52.038;4.640;2023-03-14T12:04:22;8.32;;;1.60;;
67456;SDS011;54319;52.038;4.640;2023-03-14T12:06:59;6.10;;;1.38;;
67456;SDS011;54319;52.038;4.640;2023-03-14T12:09:29;9.18;;;1.70;;
67456;SDS011;54319;52.038;4.640;2023-03-14T12:11:58;8.00;;;1.92;;
67456;SDS011;54319;52.038;4.640;2023-03-14T12:14:28;5.78;;;1.70;;
67456;SDS011;54319;52.038;4.640;2023-03-14T12:16:57;5.35;;;1.38;;
67456;SDS011;54319;52.038;4.640;2023-03-14T12:22:15;6.53;;;1.52;;
67456;SDS011;54319;52.038;4.640;2023-03-14T12:24:59;9.13;;;1.40;;
67456;SDS011;54319;52.038;4.640;2023-03-14T12:27:48;5.55;;;1.40;;
67456;SDS011;54319;52.038;4.640;2023-03-14T12:30:29;6.68;;;1.42;;
67456;SDS011;54319;52.038;4.640;2023-03-14T12:36:03;7.68;;;1.85;;
67456;SDS011;54319;52.038;4.640;2023-03-14T12:38:47;7.63;;;1.50;;
67456;SDS011;54319;52.038;4.640;2023-03-14T12:41:24;11.95;;;1.65;;
67456;SDS011;54319;52.038;4.640;2023-03-14T12:43:56;9.93;;;1.90;;
67456;SDS011;54319;52.038;4.640;2023-03-14T12:46:43;10.48;;;2.58;;
67456;SDS011;54319;52.038;4.640;2023-03-14T12:49:10;9.65;;;2.55;;
67456;SDS011;54319;52.038;4.640;2023-03-14T12:51:37;6.70;;;1.90;;
67456;SDS011;54319;52.038;4.640;2023-03-14T12:54:15;8.48;;;2.03;;
67456;SDS011;54319;52.038;4.640;2023-03-14T12:56:57;7.20;;;1.48;;
67456;SDS011;54319;52.038;4.640;2023-03-14T12:59:35;5.50;;;1.83;;
67456;SDS011;54319;52.038;4.640;2023-03-14T13:05:00;7.22;;;1.50;;
67456;SDS011;54319;52.038;4.640;2023-03-14T13:07:30;5.25;;;1.05;;
67456;SDS011;54319;52.038;4.640;2023-03-14T13:10:00;6.10;;;1.02;;
67456;SDS011;54319;52.038;4.640;2023-03-14T13:12:34;4.45;;;1.05;;
67456;SDS011;54319;52.038;4.640;2023-03-14T13:15:14;5.32;;;1.10;;
67456;SDS011;54319;52.038;4.640;2023-03-14T13:17:45;6.28;;;1.42;;
67456;SDS011;54319;52.038;4.640;2023-03-14T13:20:15;8.48;;;1.10;;
67456;SDS011;54319;52.038;4.640;2023-03-14T13:22:47;3.80;;;0.98;;
67456;SDS011;54319;52.038;4.640;2023-03-14T13:25:15;9.55;;;1.45;;
67456;SDS011;54319;52.038;4.640;2023-03-14T13:27:43;3.55;;;1.10;;
67456;SDS011;54319;52.038;4.640;2023-03-14T13:30:19;6.88;;;1.30;;
67456;SDS011;54319;52.038;4.640;2023-03-14T13:32:49;5.38;;;1.20;;
67456;SDS011;54319;52.038;4.640;2023-03-14T13:35:18;10.88;;;1.95;;
67456;SDS011;54319;52.038;4.640;2023-03-14T13:37:46;5.18;;;1.40;;
67456;SDS011;54319;52.038;4.640;2023-03-14T13:40:20;4.30;;;1.55;;
67456;SDS011;54319;52.038;4.640;2023-03-14T13:43:02;5.85;;;1.50;;
67456;SDS011;54319;52.038;4.640;2023-03-14T13:45:32;6.80;;;1.58;;
67456;SDS011;54319;52.038;4.640;2023-03-14T13:48:09;3.60;;;1.10;;
67456;SDS011;54319;52.038;4.640;2023-03-14T13:50:37;8.70;;;1.70;;
67456;SDS011;54319;52.038;4.640;2023-03-14T13:53:04;7.22;;;1.27;;
67456;SDS011;54319;52.038;4.640;2023-03-14T13:55:30;7.80;;;1.65;;
67456;SDS011;54319;52.038;4.640;2023-03-14T13:57:57;6.78;;;1.40;;
67456;SDS011;54319;52.038;4.640;2023-03-14T14:00:25;4.25;;;1.10;;
67456;SDS011;54319;52.038;4.640;2023-03-14T14:02:56;5.45;;;1.25;;
67456;SDS011;54319;52.038;4.640;2023-03-14T14:05:26;9.35;;;1.83;;
67456;SDS011;54319;52.038;4.640;2023-03-14T14:07:54;7.78;;;1.15;;
67456;SDS011;54319;52.038;4.640;2023-03-14T14:10:21;2.63;;;1.05;;
67456;SDS011;54319;52.038;4.640;2023-03-14T14:12:49;11.48;;;1.50;;
67456;SDS011;54319;52.038;4.640;2023-03-14T14:15:23;4.43;;;1.20;;
67456;SDS011;54319;52.038;4.640;2023-03-14T14:17:53;4.40;;;1.15;;
67456;SDS011;54319;52.038;4.640;2023-03-14T14:20:26;10.88;;;1.52;;
67456;SDS011;54319;52.038;4.640;2023-03-14T14:22:56;7.22;;;1.20;;
67456;SDS011;54319;52.038;4.640;2023-03-14T14:25:26;4.57;;;1.15;;
67456;SDS011;54319;52.038;4.640;2023-03-14T14:27:56;8.07;;;1.73;;
67456;SDS011;54319;52.038;4.640;2023-03-14T14:30:28;5.75;;;1.13;;
67456;SDS011;54319;52.038;4.640;2023-03-14T14:33:19;9.38;;;1.60;;
67456;SDS011;54319;52.038;4.640;2023-03-14T14:35:50;4.10;;;1.27;;
67456;SDS011;54319;52.038;4.640;2023-03-14T14:38:31;3.95;;;1.55;;
67456;SDS011;54319;52.038;4.640;2023-03-14T14:40:59;6.35;;;1.50;;
67456;SDS011;54319;52.038;4.640;2023-03-14T14:43:28;6.03;;;1.80;;
67456;SDS011;54319;52.038;4.640;2023-03-14T14:46:00;6.50;;;1.50;;
67456;SDS011;54319;52.038;4.640;2023-03-14T14:48:30;12.55;;;1.75;;
67456;SDS011;54319;52.038;4.640;2023-03-14T14:51:04;10.63;;;1.80;;
67456;SDS011;54319;52.038;4.640;2023-03-14T14:53:35;5.55;;;1.45;;
67456;SDS011;54319;52.038;4.640;2023-03-14T14:56:04;11.20;;;1.38;;
67456;SDS011;54319;52.038;4.640;2023-03-14T14:58:35;4.95;;;1.05;;
67456;SDS011;54319;52.038;4.640;2023-03-14T15:01:07;7.88;;;1.48;;
67456;SDS011;54319;52.038;4.640;2023-03-14T15:03:39;4.88;;;1.42;;
67456;SDS011;54319;52.038;4.640;2023-03-14T15:06:08;7.30;;;1.73;;
67456;SDS011;54319;52.038;4.640;2023-03-14T15:08:37;4.78;;;1.50;;
67456;SDS011;54319;52.038;4.640;2023-03-14T15:11:04;5.38;;;1.73;;
67456;SDS011;54319;52.038;4.640;2023-03-14T15:13:31;6.80;;;1.63;;
67456;SDS011;54319;52.038;4.640;2023-03-14T15:15:58;9.23;;;1.70;;
67456;SDS011;54319;52.038;4.640;2023-03-14T15:18:25;10.50;;;1.63;;